Time;durP1;ratioP1;P1;durP2;ratioP2;P2;SDS_P1;SDS_P2;PMS_P1;PMS_P2;Temp;Humidity;BMP_temperature;BMP_pressure;BME280_temperature;BME280_humidity;BME280_pressure;Samples;Min_cycle;Max_cycle;Signal;HPM_P1;HPM_P2
2021/12/06 00:01:09;;;;;;;;;;;0.80;99.90;;;;;;5113585;27;19938;-80
2021/12/06 00:03:42;;;;;;;;;;;0.80;99.90;;;;;;5126544;27;20360;-80
2021/12/06 00:06:08;;;;;;;;;;;0.80;99.90;;;;;;5123806;27;19960;-79
2021/12/06 00:08:34;;;;;;;;;;;0.80;99.90;;;;;;5119340;27;20002;-79
2021/12/06 00:11:06;;;;;;;;;;;0.80;99.90;;;;;;5116307;27;19923;-79
2021/12/06 00:13:35;;;;;;;;;;;0.80;99.90;;;;;;5114495;27;19919;-78
2021/12/06 00:16:07;;;;;;;;;;;0.90;99.90;;;;;;5107934;27;19923;-79
2021/12/06 00:18:33;;;;;;;;;;;0.80;99.90;;;;;;5131868;27;19927;-80
2021/12/06 00:21:00;;;;;;;;;;;0.80;99.90;;;;;;5112388;27;19915;-81
2021/12/06 00:23:27;;;;;;;;;;;0.80;99.90;;;;;;5117394;27;19926;-79
2021/12/06 00:25:54;;;;;;;;;;;0.80;99.90;;;;;;5129444;27;19962;-79
2021/12/06 00:28:20;;;;;;;;;;;0.80;99.90;;;;;;5125849;27;19923;-80
2021/12/06 00:30:47;;;;;;;;;;;0.80;99.90;;;;;;5116097;27;19923;-79
2021/12/06 00:33:13;;;;;;;;;;;0.80;99.90;;;;;;5116417;27;20021;-79
2021/12/06 00:35:39;;;;;;;;;;;0.80;99.90;;;;;;5119184;27;19998;-79
2021/12/06 00:38:05;;;;;;;;;;;0.80;99.90;;;;;;5099275;27;19923;-79
2021/12/06 00:40:33;;;;;;;;;;;0.80;99.90;;;;;;5114706;27;19923;-79
2021/12/06 00:42:58;;;;;;;;;;;0.80;99.90;;;;;;5128895;27;19983;-79
2021/12/06 00:45:25;;;;;;;;;;;0.80;99.90;;;;;;5130205;27;19919;-79
2021/12/06 00:47:51;;;;;;;;;;;0.80;99.90;;;;;;5132596;27;20006;-80
2021/12/06 00:50:17;;;;;;;;;;;0.80;99.90;;;;;;5113637;27;20308;-81
2021/12/06 00:52:44;;;;;;;;;;;0.80;99.90;;;;;;5111103;27;19923;-82
2021/12/06 00:55:10;;;;;;;;;;;0.70;99.90;;;;;;5114809;27;20021;-82
2021/12/06 00:57:37;;;;;;;;;;;0.70;99.90;;;;;;5099991;27;19946;-82
2021/12/06 01:00:06;;;;;;;;;;;0.70;99.90;;;;;;5112871;27;19931;-82
2021/12/06 01:02:32;;;;;;;;;;;0.70;99.90;;;;;;5125481;27;20021;-82
2021/12/06 01:04:58;;;;;;;;;;;0.60;99.90;;;;;;5115215;27;20010;-80
2021/12/06 01:07:24;;;;;;;;;;;0.60;99.90;;;;;;5111630;27;19923;-80
2021/12/06 01:09:50;;;;;;;;;;;0.60;99.90;;;;;;5130107;27;20274;-80
2021/12/06 01:12:16;;;;;;;;;;;0.60;99.90;;;;;;5130219;27;20303;-80
2021/12/06 01:14:42;;;;;;;;;;;0.60;99.90;;;;;;5098032;27;19923;-80
2021/12/06 01:17:08;;;;;;;;;;;0.60;99.90;;;;;;5113479;27;20292;-81
2021/12/06 01:19:36;;;;;;;;;;;0.60;99.90;;;;;;5116219;27;20291;-80
2021/12/06 01:22:21;;;;;;;;;;;0.60;99.90;;;;;;5118174;27;19930;-80
2021/12/06 01:25:01;;;;;;;;;;;0.60;99.90;;;;;;5136293;27;20009;-81
2021/12/06 01:30:33;;;;;;;;;;;0.60;99.90;;;;;;5127742;27;20013;-82
2021/12/06 01:40:54;;;;;;;;;;;0.60;99.90;;;;;;5142695;27;19979;-81
2021/12/06 01:43:21;;;;;;;;;;;0.60;99.90;;;;;;5128809;27;19942;-81
2021/12/06 01:45:47;;;;;;;;;;;0.60;99.90;;;;;;5124783;27;19923;-81
2021/12/06 01:48:13;;;;;;;;;;;0.60;99.90;;;;;;5129262;27;20302;-81
2021/12/06 01:50:39;;;;;;;;;;;0.60;99.90;;;;;;5144358;27;19938;-82
2021/12/06 01:53:06;;;;;;;;;;;0.60;99.90;;;;;;5127340;27;20340;-82
2021/12/06 01:55:36;;;;;;;;;;;0.60;99.90;;;;;;5129535;27;19957;-81
2021/12/06 01:58:04;;;;;;;;;;;0.60;99.90;;;;;;5100262;27;19983;-81
2021/12/06 02:00:33;;;;;;;;;;;0.60;99.90;;;;;;5100828;27;19919;-82
2021/12/06 02:02:59;;;;;;;;;;;0.60;99.90;;;;;;5121643;27;19919;-82
2021/12/06 02:05:25;;;;;;;;;;;0.60;99.90;;;;;;5119528;27;20278;-82
2021/12/06 02:07:51;;;;;;;;;;;0.60;99.90;;;;;;5116015;27;19922;-81
2021/12/06 02:10:17;;;;;;;;;;;0.60;99.90;;;;;;5113299;27;19923;-81
2021/12/06 02:12:46;;;;;;;;;;;0.60;99.90;;;;;;5108927;27;20268;-81
2021/12/06 02:18:08;;;;;;;;;;;0.60;99.90;;;;;;5153031;27;19935;-81
2021/12/06 02:20:42;;;;;;;;;;;0.60;99.90;;;;;;5136083;27;19919;-81
2021/12/06 02:23:08;;;;;;;;;;;0.60;99.90;;;;;;5117867;27;19918;-82
2021/12/06 02:25:34;;;;;;;;;;;0.70;99.90;;;;;;5114778;27;20014;-82
2021/12/06 02:28:02;;;;;;;;;;;0.60;99.90;;;;;;5117452;27;19953;-80
2021/12/06 02:30:28;;;;;;;;;;;0.60;99.90;;;;;;5115466;27;19930;-79
2021/12/06 02:32:55;;;;;;;;;;;0.70;99.90;;;;;;5125955;27;19914;-82
2021/12/06 02:35:23;;;;;;;;;;;0.60;99.90;;;;;;5110167;27;20923;-83
2021/12/06 02:37:50;;;;;;;;;;;0.60;99.90;;;;;;5135385;27;19934;-82
2021/12/06 02:40:21;;;;;;;;;;;0.60;99.90;;;;;;5096719;27;19962;-81
2021/12/06 02:42:47;;;;;;;;;;;0.70;99.90;;;;;;5125842;27;19922;-83
2021/12/06 02:45:16;;;;;;;;;;;0.70;99.90;;;;;;5108806;27;19923;-81
2021/12/06 02:47:41;;;;;;;;;;;0.70;99.90;;;;;;5125965;27;19966;-81
2021/12/06 02:50:09;;;;;;;;;;;0.70;99.90;;;;;;5118187;27;19941;-82
2021/12/06 02:52:37;;;;;;;;;;;0.70;99.90;;;;;;5098174;27;20339;-81
2021/12/06 02:55:12;;;;;;;;;;;0.70;99.90;;;;;;5115384;27;19972;-81
2021/12/06 02:57:45;;;;;;;;;;;0.70;99.90;;;;;;5120112;27;19927;-81
2021/12/06 03:00:11;;;;;;;;;;;0.70;99.90;;;;;;5105844;27;19926;-82
2021/12/06 03:02:37;;;;;;;;;;;0.70;99.90;;;;;;5103375;27;20021;-86
2021/12/06 03:05:04;;;;;;;;;;;0.70;99.90;;;;;;5102434;27;20387;-80
2021/12/06 03:07:36;;;;;;;;;;;0.70;99.90;;;;;;5124512;27;19945;-80
2021/12/06 03:10:03;;;;;;;;;;;0.70;99.90;;;;;;5111601;27;19930;-80
2021/12/06 03:12:29;;;;;;;;;;;0.70;99.90;;;;;;5106294;27;19931;-80
2021/12/06 03:14:56;;;;;;;;;;;0.80;99.90;;;;;;5114896;27;20282;-82
2021/12/06 03:17:24;;;;;;;;;;;0.80;99.90;;;;;;5114624;27;19922;-84
2021/12/06 03:19:50;;;;;;;;;;;0.80;99.90;;;;;;5110307;27;19929;-87
2021/12/06 03:22:17;;;;;;;;;;;0.80;99.90;;;;;;5095419;27;20014;-85
2021/12/06 03:24:43;;;;;;;;;;;0.70;99.90;;;;;;5113199;27;19919;-86
2021/12/06 03:27:10;;;;;;;;;;;0.70;99.90;;;;;;5096139;27;20764;-86
2021/12/06 03:29:37;;;;;;;;;;;0.70;99.90;;;;;;5113022;28;19965;-86
2021/12/06 03:32:03;;;;;;;;;;;0.70;99.90;;;;;;5112799;27;20301;-85
2021/12/06 03:34:29;;;;;;;;;;;0.60;99.90;;;;;;5112748;27;19965;-85
2021/12/06 03:36:56;;;;;;;;;;;0.60;99.90;;;;;;5092812;27;19922;-86
2021/12/06 03:39:27;;;;;;;;;;;0.60;99.90;;;;;;5124940;27;20033;-86
2021/12/06 03:41:55;;;;;;;;;;;0.60;99.90;;;;;;5102172;27;20058;-86
2021/12/06 03:44:21;;;;;;;;;;;0.60;99.90;;;;;;5129079;27;20295;-87
2021/12/06 03:46:49;;;;;;;;;;;0.60;99.90;;;;;;5105738;27;20030;-87
2021/12/06 03:49:16;;;;;;;;;;;0.60;99.90;;;;;;5112254;27;19919;-87
2021/12/06 03:51:43;;;;;;;;;;;0.50;99.90;;;;;;5143362;27;20319;-87
2021/12/06 03:54:10;;;;;;;;;;;0.50;99.90;;;;;;5131524;27;19975;-87
2021/12/06 03:56:38;;;;;;;;;;;0.50;99.90;;;;;;5106571;27;19919;-86
2021/12/06 03:59:04;;;;;;;;;;;0.50;99.90;;;;;;5127123;27;19919;-86
2021/12/06 04:01:31;;;;;;;;;;;0.50;99.90;;;;;;5119540;27;20385;-86
2021/12/06 04:03:58;;;;;;;;;;;0.50;99.90;;;;;;5113840;27;19926;-83
2021/12/06 04:06:24;;;;;;;;;;;0.50;99.90;;;;;;5126194;27;20303;-84
2021/12/06 04:08:50;;;;;;;;;;;0.40;99.90;;;;;;5102269;28;19946;-86
2021/12/06 04:11:16;;;;;;;;;;;0.40;99.90;;;;;;5131059;27;19931;-86
2021/12/06 04:13:43;;;;;;;;;;;0.40;99.90;;;;;;5135059;27;19992;-85
2021/12/06 04:16:09;;;;;;;;;;;0.40;99.90;;;;;;5115044;27;20640;-86
2021/12/06 04:18:35;;;;;;;;;;;0.40;99.90;;;;;;5141032;27;19930;-85
2021/12/06 04:21:02;;;;;;;;;;;0.40;99.90;;;;;;5095434;28;19915;-86
2021/12/06 04:23:28;;;;;;;;;;;0.40;99.90;;;;;;5112584;27;20310;-86
2021/12/06 04:25:54;;;;;;;;;;;0.40;99.90;;;;;;5090824;28;19931;-86
2021/12/06 04:28:20;;;;;;;;;;;0.40;99.90;;;;;;5113147;28;19938;-87
2021/12/06 04:30:47;;;;;;;;;;;0.40;99.90;;;;;;5098635;27;20367;-85
2021/12/06 04:33:13;;;;;;;;;;;0.40;99.90;;;;;;5111238;27;19926;-86
2021/12/06 04:35:40;;;;;;;;;;;0.40;99.90;;;;;;5099109;27;19925;-82
2021/12/06 04:38:06;;;;;;;;;;;0.40;99.90;;;;;;5110368;27;20055;-83
2021/12/06 04:40:32;;;;;;;;;;;0.30;99.90;;;;;;5106776;28;19924;-83
2021/12/06 04:42:58;;;;;;;;;;;0.30;99.90;;;;;;5142923;27;19915;-81
2021/12/06 04:45:25;;;;;;;;;;;0.30;99.90;;;;;;5114336;27;19923;-82
2021/12/06 04:47:51;;;;;;;;;;;0.20;99.90;;;;;;5120272;27;19927;-81
2021/12/06 04:50:18;;;;;;;;;;;0.30;99.90;;;;;;5128715;27;20363;-80
2021/12/06 04:52:45;;;;;;;;;;;0.20;99.90;;;;;;5129430;27;19919;-81
2021/12/06 04:55:21;;;;;;;;;;;0.30;99.90;;;;;;5116811;27;19923;-81
2021/12/06 04:57:47;;;;;;;;;;;0.20;99.90;;;;;;5119062;27;19916;-81
2021/12/06 05:00:19;;;;;;;;;;;0.20;99.90;;;;;;5120050;27;19946;-82
2021/12/06 05:02:46;;;;;;;;;;;0.20;99.90;;;;;;5115079;27;19916;-84
2021/12/06 05:05:23;;;;;;;;;;;0.20;99.90;;;;;;5114710;27;19928;-83
2021/12/06 05:07:52;;;;;;;;;;;0.20;99.90;;;;;;5100701;27;19923;-82
2021/12/06 05:10:18;;;;;;;;;;;0.20;99.90;;;;;;5126472;27;19916;-81
2021/12/06 05:12:44;;;;;;;;;;;0.10;99.90;;;;;;5121861;27;19926;-82
2021/12/06 05:15:11;;;;;;;;;;;0.10;99.90;;;;;;5111819;27;19923;-82
2021/12/06 05:17:37;;;;;;;;;;;0.10;99.90;;;;;;5124212;27;19915;-82
2021/12/06 05:20:04;;;;;;;;;;;0.10;99.90;;;;;;5103422;27;19922;-82
2021/12/06 05:22:31;;;;;;;;;;;0.10;99.90;;;;;;5109400;27;20309;-82
2021/12/06 05:24:57;;;;;;;;;;;0.00;99.90;;;;;;5114311;27;20411;-81
2021/12/06 05:27:26;;;;;;;;;;;0.00;99.90;;;;;;5128253;27;19927;-81
2021/12/06 05:29:57;;;;;;;;;;;0.00;99.90;;;;;;5139054;27;19930;-81
2021/12/06 05:32:25;;;;;;;;;;;0.00;99.90;;;;;;5130890;27;19933;-81
2021/12/06 05:34:57;;;;;;;;;;;0.00;99.90;;;;;;5153815;27;19915;-81
2021/12/06 05:37:23;;;;;;;;;;;0.00;99.90;;;;;;5115197;27;20003;-82
2021/12/06 05:39:49;;;;;;;;;;;0.00;99.90;;;;;;5098311;27;20335;-81
2021/12/06 05:42:16;;;;;;;;;;;0.00;99.90;;;;;;5121192;27;19957;-82
2021/12/06 05:44:42;;;;;;;;;;;-0.10;99.90;;;;;;5126695;27;19919;-82
2021/12/06 05:47:09;;;;;;;;;;;-0.10;99.90;;;;;;5127944;27;19923;-80
2021/12/06 05:49:35;;;;;;;;;;;-0.10;99.90;;;;;;5121401;27;20010;-81
2021/12/06 05:52:01;;;;;;;;;;;-0.10;99.90;;;;;;5105118;27;19923;-82
2021/12/06 05:54:28;;;;;;;;;;;-0.10;99.90;;;;;;5135161;27;19919;-81
2021/12/06 05:56:54;;;;;;;;;;;0.00;99.90;;;;;;5118528;27;19939;-82
2021/12/06 05:59:21;;;;;;;;;;;0.00;99.90;;;;;;5114548;27;19923;-81
2021/12/06 06:01:49;;;;;;;;;;;0.00;99.90;;;;;;5115257;27;19919;-81
2021/12/06 06:04:15;;;;;;;;;;;0.00;99.90;;;;;;5121727;27;19919;-82
2021/12/06 06:06:41;;;;;;;;;;;0.00;99.90;;;;;;5127768;27;19923;-82
2021/12/06 06:09:07;;;;;;;;;;;0.00;99.90;;;;;;5130153;27;19915;-82
2021/12/06 06:11:36;;;;;;;;;;;0.00;99.90;;;;;;5122261;27;20079;-82
2021/12/06 06:14:03;;;;;;;;;;;0.00;99.90;;;;;;5131753;27;20251;-82
2021/12/06 06:16:32;;;;;;;;;;;0.00;99.90;;;;;;5151158;27;19919;-82
2021/12/06 06:18:59;;;;;;;;;;;0.00;99.90;;;;;;5114218;27;19990;-84
2021/12/06 06:21:25;;;;;;;;;;;0.00;99.90;;;;;;5130522;27;19923;-82
2021/12/06 06:23:51;;;;;;;;;;;0.00;99.90;;;;;;5129264;27;20279;-82
2021/12/06 06:26:17;;;;;;;;;;;-0.10;99.90;;;;;;5099479;27;20364;-82
2021/12/06 06:28:43;;;;;;;;;;;0.00;99.90;;;;;;5092069;27;19930;-87
2021/12/06 06:31:09;;;;;;;;;;;0.00;99.90;;;;;;5135941;27;20378;-82
2021/12/06 06:33:35;;;;;;;;;;;0.00;99.90;;;;;;5131966;27;19950;-82
2021/12/06 06:36:01;;;;;;;;;;;0.00;99.90;;;;;;5148647;27;19923;-82
2021/12/06 06:38:27;;;;;;;;;;;-0.10;99.90;;;;;;5125458;27;19915;-81
2021/12/06 06:40:53;;;;;;;;;;;-0.10;99.90;;;;;;5118325;27;19994;-77
2021/12/06 06:43:20;;;;;;;;;;;-0.10;99.90;;;;;;5105348;27;19967;-80
2021/12/06 06:45:45;;;;;;;;;;;-0.10;99.90;;;;;;5125266;27;19915;-80
2021/12/06 06:48:11;;;;;;;;;;;-0.10;99.90;;;;;;5109018;27;19927;-79
2021/12/06 06:50:38;;;;;;;;;;;-0.20;99.90;;;;;;5139160;27;20189;-79
2021/12/06 06:53:04;;;;;;;;;;;-0.20;99.90;;;;;;5122340;27;19919;-81
2021/12/06 06:55:31;;;;;;;;;;;-0.20;99.90;;;;;;5116006;27;19915;-75
2021/12/06 06:57:57;;;;;;;;;;;-0.20;99.90;;;;;;5103151;27;19958;-78
2021/12/06 07:00:25;;;;;;;;;;;-0.20;99.90;;;;;;5124344;27;19923;-77
2021/12/06 07:02:51;;;;;;;;;;;-0.20;99.90;;;;;;5121225;27;20595;-80
2021/12/06 07:05:18;;;;;;;;;;;-0.20;99.90;;;;;;5124039;27;20368;-84
2021/12/06 07:07:44;;;;;;;;;;;-0.20;99.90;;;;;;5134652;27;19922;-80
2021/12/06 07:10:10;;;;;;;;;;;-0.30;99.90;;;;;;5131525;27;19923;-80
2021/12/06 07:12:44;;;;;;;;;;;-0.30;99.90;;;;;;5113274;27;20337;-82
2021/12/06 07:15:11;;;;;;;;;;;-0.30;99.90;;;;;;5132223;27;19919;-80
2021/12/06 07:17:38;;;;;;;;;;;-0.30;99.90;;;;;;5112692;27;19931;-79
2021/12/06 07:20:05;;;;;;;;;;;-0.30;99.90;;;;;;5113462;27;20423;-80
2021/12/06 07:22:31;;;;;;;;;;;-0.30;99.90;;;;;;5139834;27;19920;-80
2021/12/06 07:24:57;;;;;;;;;;;-0.40;99.90;;;;;;5108910;27;19924;-79
2021/12/06 07:27:23;;;;;;;;;;;-0.40;99.90;;;;;;5125055;27;20551;-78
2021/12/06 07:29:49;;;;;;;;;;;-0.40;99.90;;;;;;5127034;27;19985;-79
2021/12/06 07:32:15;;;;;;;;;;;-0.40;99.90;;;;;;5095772;27;19919;-82
2021/12/06 07:34:41;;;;;;;;;;;-0.30;99.90;;;;;;5118229;27;19978;-82
2021/12/06 07:37:07;;;;;;;;;;;-0.40;99.90;;;;;;5107937;28;19918;-81
2021/12/06 07:39:33;;;;;;;;;;;-0.40;99.90;;;;;;5094432;27;19945;-82
2021/12/06 07:41:59;;;;;;;;;;;-0.40;99.90;;;;;;5096274;27;19919;-82
2021/12/06 07:44:25;;;;;;;;;;;-0.40;99.90;;;;;;5128784;27;19971;-82
2021/12/06 07:46:52;;;;;;;;;;;-0.50;99.90;;;;;;5150071;27;19942;-82
2021/12/06 07:49:22;;;;;;;;;;;-0.50;99.90;;;;;;5110386;27;19955;-82
2021/12/06 07:51:48;;;;;;;;;;;-0.40;99.90;;;;;;5091449;28;19950;-82
2021/12/06 07:54:14;;;;;;;;;;;-0.50;99.90;;;;;;5113169;27;19922;-83
2021/12/06 07:56:41;;;;;;;;;;;-0.50;99.90;;;;;;5151251;27;19919;-83
2021/12/06 07:59:07;;;;;;;;;;;-0.50;99.90;;;;;;5123806;27;19958;-82
2021/12/06 08:01:33;;;;;;;;;;;-0.50;99.90;;;;;;5113383;27;19934;-79
2021/12/06 08:04:00;;;;;;;;;;;-0.50;99.90;;;;;;5110221;27;19930;-79
2021/12/06 08:06:26;;;;;;;;;;;-0.50;99.90;;;;;;5125968;28;19919;-79
2021/12/06 08:08:53;;;;;;;;;;;-0.50;99.90;;;;;;5130430;27;20059;-79
2021/12/06 08:11:21;;;;;;;;;;;-0.50;99.90;;;;;;5146593;27;19923;-81
2021/12/06 08:13:54;;;;;;;;;;;-0.50;99.90;;;;;;5096619;27;20289;-80
2021/12/06 08:16:21;;;;;;;;;;;-0.50;99.90;;;;;;5128949;27;19923;-79
2021/12/06 08:18:47;;;;;;;;;;;-0.50;99.90;;;;;;5110110;27;19919;-82
2021/12/06 08:21:14;;;;;;;;;;;-0.50;99.90;;;;;;5133622;27;19930;-80
2021/12/06 08:23:41;;;;;;;;;;;-0.50;99.90;;;;;;5147173;27;19926;-80
2021/12/06 08:26:08;;;;;;;;;;;-0.50;99.90;;;;;;5131409;27;20061;-80
2021/12/06 08:28:35;;;;;;;;;;;-0.50;99.90;;;;;;5130888;27;20709;-79
2021/12/06 08:31:02;;;;;;;;;;;-0.40;99.90;;;;;;5094424;27;19924;-75
2021/12/06 08:33:28;;;;;;;;;;;-0.50;99.90;;;;;;5095347;27;19919;-78
2021/12/06 08:35:55;;;;;;;;;;;-0.50;99.90;;;;;;5094961;27;19920;-79
2021/12/06 08:38:23;;;;;;;;;;;-0.50;99.90;;;;;;5126886;27;19918;-79
2021/12/06 08:40:49;;;;;;;;;;;-0.60;99.90;;;;;;5112936;27;19927;-80
2021/12/06 08:43:19;;;;;;;;;;;-0.60;99.90;;;;;;5122790;27;19915;-80
2021/12/06 08:45:50;;;;;;;;;;;-0.60;99.90;;;;;;5108981;27;20432;-80
2021/12/06 08:48:17;;;;;;;;;;;-0.60;99.90;;;;;;5112094;27;20002;-82
2021/12/06 08:50:43;;;;;;;;;;;-0.60;99.90;;;;;;5093792;27;19920;-83
2021/12/06 08:53:10;;;;;;;;;;;-0.60;99.90;;;;;;5078386;27;19976;-77
2021/12/06 08:55:36;;;;;;;;;;;-0.60;99.90;;;;;;5148467;27;19918;-76
2021/12/06 08:58:02;;;;;;;;;;;-0.60;99.90;;;;;;5151307;27;19919;-79
2021/12/06 09:00:30;;;;;;;;;;;-0.60;99.90;;;;;;5132103;27;19930;-82
2021/12/06 09:02:56;;;;;;;;;;;-0.60;99.90;;;;;;5133737;27;19922;-85
2021/12/06 09:05:24;;;;;;;;;;;-0.50;99.90;;;;;;5137781;27;20397;-83
2021/12/06 09:07:51;;;;;;;;;;;-0.50;99.90;;;;;;5101583;27;20298;-84
2021/12/06 09:10:17;;;;;;;;;;;-0.60;99.90;;;;;;5155215;27;19994;-82
2021/12/06 09:12:43;;;;;;;;;;;-0.50;99.90;;;;;;5142814;27;19948;-83
2021/12/06 09:15:12;;;;;;;;;;;-0.40;99.90;;;;;;5082956;27;20311;-81
2021/12/06 09:17:38;;;;;;;;;;;-0.50;99.90;;;;;;5130665;27;20014;-78
2021/12/06 09:20:06;;;;;;;;;;;-0.50;99.90;;;;;;5121672;27;20005;-78
2021/12/06 09:22:32;;;;;;;;;;;-0.50;99.90;;;;;;5112076;27;20165;-79
2021/12/06 09:24:58;;;;;;;;;;;-0.50;99.90;;;;;;5134968;27;20022;-78
2021/12/06 09:27:24;;;;;;;;;;;-0.40;99.90;;;;;;5120660;27;19927;-79
2021/12/06 09:29:50;;;;;;;;;;;-0.40;99.90;;;;;;5131726;27;19929;-82
2021/12/06 09:32:16;;;;;;;;;;;-0.40;99.90;;;;;;5132763;27;20143;-80
2021/12/06 09:34:44;;;;;;;;;;;-0.40;99.90;;;;;;5107572;27;19919;-80
2021/12/06 09:37:11;;;;;;;;;;;-0.40;99.90;;;;;;5105526;27;19963;-81
2021/12/06 09:39:37;;;;;;;;;;;-0.40;99.90;;;;;;5114192;27;19914;-80
2021/12/06 09:42:03;;;;;;;;;;;-0.40;99.90;;;;;;5113257;27;20026;-78
2021/12/06 09:44:29;;;;;;;;;;;-0.50;99.90;;;;;;5114965;27;20293;-77
2021/12/06 09:46:56;;;;;;;;;;;-0.50;99.90;;;;;;5114965;27;20021;-76
2021/12/06 09:49:24;;;;;;;;;;;-0.50;99.90;;;;;;5127229;27;20014;-77
2021/12/06 09:51:53;;;;;;;;;;;-0.40;99.90;;;;;;5128213;27;19924;-76
2021/12/06 09:54:20;;;;;;;;;;;-0.40;99.90;;;;;;5118555;27;20014;-77
2021/12/06 09:56:47;;;;;;;;;;;-0.40;99.90;;;;;;5132669;27;19919;-77
2021/12/06 09:59:15;;;;;;;;;;;-0.40;99.90;;;;;;5125164;27;19923;-78
2021/12/06 10:01:48;;;;;;;;;;;-0.40;99.90;;;;;;5114826;27;19934;-77
2021/12/06 10:04:15;;;;;;;;;;;-0.40;99.90;;;;;;5113358;27;20401;-78
2021/12/06 10:06:42;;;;;;;;;;;-0.30;99.90;;;;;;5111982;27;20476;-78
2021/12/06 10:09:10;;;;;;;;;;;-0.30;99.90;;;;;;5114852;27;19919;-77
2021/12/06 10:11:36;;;;;;;;;;;-0.30;99.90;;;;;;5128071;27;20571;-76
2021/12/06 10:14:03;;;;;;;;;;;-0.30;99.90;;;;;;5142313;27;19922;-77
2021/12/06 10:16:29;;;;;;;;;;;-0.20;99.90;;;;;;5135607;27;19922;-77
2021/12/06 10:18:55;;;;;;;;;;;-0.20;99.90;;;;;;5128547;27;19934;-78
2021/12/06 10:21:24;;;;;;;;;;;-0.20;99.90;;;;;;5131357;27;19915;-77
2021/12/06 10:23:50;;;;;;;;;;;-0.30;99.90;;;;;;5132619;27;19966;-77
2021/12/06 10:26:17;;;;;;;;;;;-0.30;99.90;;;;;;5105065;27;20068;-77
2021/12/06 10:28:43;;;;;;;;;;;-0.30;99.90;;;;;;5134167;27;19930;-76
2021/12/06 10:31:11;;;;;;;;;;;-0.30;99.90;;;;;;5140903;27;19919;-77
2021/12/06 10:33:38;;;;;;;;;;;-0.40;99.90;;;;;;5104150;27;19941;-77
2021/12/06 10:36:06;;;;;;;;;;;-0.40;99.90;;;;;;5116511;27;20032;-76
2021/12/06 10:38:34;;;;;;;;;;;-0.40;99.90;;;;;;5130897;27;19920;-77
2021/12/06 10:41:02;;;;;;;;;;;-0.40;99.90;;;;;;5133195;27;19946;-77
2021/12/06 10:43:28;;;;;;;;;;;-0.40;99.90;;;;;;5126565;27;20286;-77
2021/12/06 10:45:55;;;;;;;;;;;-0.40;99.90;;;;;;5124526;27;19919;-76
2021/12/06 10:48:21;;;;;;;;;;;-0.40;99.90;;;;;;5139615;27;20006;-78
2021/12/06 10:50:53;;;;;;;;;;;-0.30;99.90;;;;;;5130792;27;20010;-78
2021/12/06 10:53:20;;;;;;;;;;;-0.40;99.90;;;;;;5131521;27;20372;-76
2021/12/06 10:55:47;;;;;;;;;;;-0.30;99.90;;;;;;5133030;27;19963;-78
2021/12/06 10:58:15;;;;;;;;;;;-0.30;99.90;;;;;;5113325;27;19942;-78
2021/12/06 11:00:41;;;;;;;;;;;-0.30;99.90;;;;;;5115487;27;19916;-77
2021/12/06 11:03:29;;;;;;;;;;;-0.30;99.90;;;;;;5134174;27;20632;-76
2021/12/06 11:06:01;;;;;;;;;;;-0.30;99.90;;;;;;5124290;27;19923;-77
2021/12/06 11:08:27;;;;;;;;;;;-0.20;99.90;;;;;;5113398;27;19919;-78
2021/12/06 11:11:01;;;;;;;;;;;-0.20;99.90;;;;;;5131622;27;19915;-78
2021/12/06 11:13:33;;;;;;;;;;;-0.10;99.90;;;;;;5131988;27;19938;-77
2021/12/06 11:15:59;;;;;;;;;;;-0.10;99.90;;;;;;5132099;27;19931;-78
2021/12/06 11:18:49;;;;;;;;;;;-0.10;99.90;;;;;;5131310;27;20386;-78
2021/12/06 11:21:23;;;;;;;;;;;-0.10;99.90;;;;;;5110022;27;19922;-77
2021/12/06 11:24:07;;;;;;;;;;;-0.10;99.90;;;;;;5127134;27;20724;-76
2021/12/06 11:26:36;;;;;;;;;;;0.00;99.90;;;;;;5131604;27;19923;-77
2021/12/06 11:29:06;;;;;;;;;;;0.00;99.90;;;;;;5095587;27;19977;-77
2021/12/06 11:31:32;;;;;;;;;;;0.00;99.90;;;;;;5113380;28;19919;-77
2021/12/06 11:33:59;;;;;;;;;;;0.00;99.90;;;;;;5121280;27;19927;-78
2021/12/06 11:36:27;;;;;;;;;;;0.00;99.90;;;;;;5129052;27;19919;-79
2021/12/06 11:39:14;;;;;;;;;;;0.00;99.90;;;;;;5112963;27;20044;-78
2021/12/06 11:41:42;;;;;;;;;;;0.00;99.90;;;;;;5113349;27;19945;-78
2021/12/06 11:44:13;;;;;;;;;;;0.00;99.90;;;;;;5131150;27;19915;-76
2021/12/06 11:46:38;;;;;;;;;;;0.00;99.90;;;;;;5113263;28;20010;-78
2021/12/06 11:49:14;;;;;;;;;;;0.00;99.90;;;;;;5130750;28;19924;-77
2021/12/06 11:51:40;;;;;;;;;;;0.10;99.90;;;;;;5129812;27;19930;-76
2021/12/06 11:54:06;;;;;;;;;;;0.10;99.90;;;;;;5095899;28;19924;-77
2021/12/06 11:56:33;;;;;;;;;;;0.10;99.90;;;;;;5112208;28;19922;-78
2021/12/06 11:59:01;;;;;;;;;;;0.10;99.90;;;;;;5131147;28;19919;-78
2021/12/06 12:01:40;;;;;;;;;;;0.00;99.90;;;;;;5098000;27;19931;-77
2021/12/06 12:04:08;;;;;;;;;;;0.00;99.90;;;;;;5136107;27;19968;-77
2021/12/06 12:06:42;;;;;;;;;;;0.00;99.90;;;;;;5134856;27;20631;-79
2021/12/06 12:09:20;;;;;;;;;;;0.00;99.90;;;;;;5107376;27;20002;-78
2021/12/06 12:11:59;;;;;;;;;;;0.00;99.90;;;;;;5135664;27;19946;-76
2021/12/06 12:14:30;;;;;;;;;;;0.00;99.90;;;;;;5116601;27;20331;-78
2021/12/06 12:16:57;;;;;;;;;;;0.00;99.90;;;;;;5117122;27;19987;-77
2021/12/06 12:19:23;;;;;;;;;;;0.00;99.90;;;;;;5105686;27;19919;-78
2021/12/06 12:21:49;;;;;;;;;;;0.00;99.90;;;;;;5134229;27;20379;-80
2021/12/06 12:24:15;;;;;;;;;;;0.00;99.90;;;;;;5153364;27;19934;-78
2021/12/06 12:26:51;;;;;;;;;;;0.10;99.90;;;;;;5130855;27;19923;-79
2021/12/06 12:29:24;;;;;;;;;;;0.10;99.90;;;;;;5135164;27;19926;-78
2021/12/06 12:31:52;;;;;;;;;;;0.10;99.90;;;;;;5155497;27;20243;-78
2021/12/06 12:34:18;;;;;;;;;;;0.10;99.90;;;;;;5132147;27;19954;-78
2021/12/06 12:36:44;;;;;;;;;;;0.10;99.90;;;;;;5128211;27;19978;-78
2021/12/06 12:39:15;;;;;;;;;;;0.20;99.90;;;;;;5099547;27;20452;-78
2021/12/06 12:41:46;;;;;;;;;;;0.20;99.90;;;;;;5149886;27;19930;-77
2021/12/06 12:44:12;;;;;;;;;;;0.20;99.90;;;;;;5151721;27;20259;-78
2021/12/06 12:46:40;;;;;;;;;;;0.20;99.90;;;;;;5129164;27;19991;-78
2021/12/06 12:49:14;;;;;;;;;;;0.20;99.90;;;;;;5121532;27;19923;-79
2021/12/06 12:51:49;;;;;;;;;;;0.20;99.90;;;;;;5127896;27;19927;-79
2021/12/06 12:54:18;;;;;;;;;;;0.20;99.90;;;;;;5147785;27;19930;-77
2021/12/06 12:56:44;;;;;;;;;;;0.20;99.90;;;;;;5132860;27;19926;-79
2021/12/06 12:59:18;;;;;;;;;;;0.20;99.90;;;;;;5129405;27;19938;-80
2021/12/06 13:01:46;;;;;;;;;;;0.20;99.90;;;;;;5133542;27;19920;-80
2021/12/06 13:04:12;;;;;;;;;;;0.10;99.90;;;;;;5104156;27;19916;-79
2021/12/06 13:06:38;;;;;;;;;;;0.10;99.90;;;;;;5108105;27;19928;-79
2021/12/06 13:09:26;;;;;;;;;;;0.10;99.90;;;;;;5111298;27;19927;-79
2021/12/06 13:11:55;;;;;;;;;;;0.10;99.90;;;;;;5109779;28;19916;-79
2021/12/06 13:14:28;;;;;;;;;;;0.00;99.90;;;;;;5109036;28;20328;-78
2021/12/06 13:17:02;;;;;;;;;;;0.00;99.90;;;;;;5109292;27;19919;-77
2021/12/06 13:19:39;;;;;;;;;;;-0.10;99.90;;;;;;5110496;27;20299;-77
2021/12/06 13:22:12;;;;;;;;;;;-0.10;99.90;;;;;;5115385;27;20390;-77
2021/12/06 13:24:41;;;;;;;;;;;-0.20;99.90;;;;;;5134103;27;19926;-77
2021/12/06 13:27:20;;;;;;;;;;;-0.20;99.90;;;;;;5132881;27;19924;-79
2021/12/06 13:29:54;;;;;;;;;;;-0.20;99.90;;;;;;5131916;27;19972;-80
2021/12/06 13:32:35;;;;;;;;;;;-0.20;99.90;;;;;;5131701;27;19976;-81
2021/12/06 13:35:17;;;;;;;;;;;-0.20;99.90;;;;;;5111157;28;19926;-81
2021/12/06 13:37:57;;;;;;;;;;;-0.20;99.90;;;;;;5112097;27;19955;-80
2021/12/06 13:40:23;;;;;;;;;;;-0.20;99.90;;;;;;5095096;28;19985;-80
2021/12/06 13:42:49;;;;;;;;;;;-0.20;99.90;;;;;;5113637;28;19920;-77
2021/12/06 13:45:19;;;;;;;;;;;-0.20;99.90;;;;;;5113152;28;19968;-77
2021/12/06 13:47:48;;;;;;;;;;;-0.20;99.90;;;;;;5112703;27;19942;-78
2021/12/06 13:50:15;;;;;;;;;;;-0.20;99.90;;;;;;5111556;28;20026;-78
2021/12/06 13:52:44;;;;;;;;;;;-0.30;99.90;;;;;;5111845;27;19920;-78
2021/12/06 13:55:17;;;;;;;;;;;-0.30;99.90;;;;;;5111692;28;19927;-77
2021/12/06 13:57:44;;;;;;;;;;;-0.30;99.90;;;;;;5113291;28;19919;-77
2021/12/06 14:00:11;;;;;;;;;;;-0.30;99.90;;;;;;5112840;28;19920;-78
2021/12/06 14:02:38;;;;;;;;;;;-0.30;99.90;;;;;;5100230;28;20364;-77
2021/12/06 14:05:04;;;;;;;;;;;-0.30;99.90;;;;;;5112223;28;20525;-79
2021/12/06 14:07:31;;;;;;;;;;;-0.30;99.90;;;;;;5114863;27;19923;-78
2021/12/06 14:09:58;;;;;;;;;;;-0.40;99.90;;;;;;5114794;27;19919;-78
2021/12/06 14:12:29;;;;;;;;;;;-0.40;99.90;;;;;;5133283;27;19946;-76
2021/12/06 14:15:02;;;;;;;;;;;-0.40;99.90;;;;;;5133183;27;19962;-78
2021/12/06 14:17:29;;;;;;;;;;;-0.40;99.90;;;;;;5103378;28;19920;-77
2021/12/06 14:19:55;;;;;;;;;;;-0.40;99.90;;;;;;5123472;27;19980;-79
2021/12/06 14:22:23;;;;;;;;;;;-0.50;99.90;;;;;;5129549;27;20383;-78
2021/12/06 14:24:50;;;;;;;;;;;-0.40;99.90;;;;;;5131426;27;19920;-79
2021/12/06 14:27:17;;;;;;;;;;;-0.40;99.90;;;;;;5130382;27;19915;-82
2021/12/06 14:29:49;;;;;;;;;;;-0.40;99.90;;;;;;5100252;28;20052;-80
2021/12/06 14:32:15;;;;;;;;;;;-0.40;99.90;;;;;;5114988;27;20032;-81
2021/12/06 14:34:41;;;;;;;;;;;-0.40;99.90;;;;;;5111795;27;19928;-81
2021/12/06 14:37:15;;;;;;;;;;;-0.40;99.90;;;;;;5095951;28;20011;-80
2021/12/06 14:39:44;;;;;;;;;;;-0.40;99.90;;;;;;5131757;27;20033;-80
2021/12/06 14:42:12;;;;;;;;;;;-0.40;99.90;;;;;;5131797;27;20031;-80